createdAt,value
2018-02-07T00:02:08.558Z,0.86
2018-02-07T00:04:36.121Z,0.73
2018-02-07T00:07:04.002Z,0.75
2018-02-07T00:09:31.551Z,0.86
2018-02-07T00:11:59.104Z,0.89
2018-02-07T00:14:26.679Z,0.98
2018-02-07T00:16:54.229Z,0.98
2018-02-07T00:19:21.771Z,1.11
2018-02-07T00:21:49.394Z,1.18
2018-02-07T00:24:16.940Z,1.28
2018-02-07T00:26:44.480Z,1.30
2018-02-07T00:29:12.174Z,1.24
2018-02-07T00:31:39.727Z,1.06
2018-02-07T00:34:07.284Z,0.63
2018-02-07T00:36:34.875Z,0.55
2018-02-07T00:39:02.424Z,0.40
2018-02-07T00:41:29.979Z,0.29
2018-02-07T00:43:57.794Z,0.25
2018-02-07T00:46:25.336Z,0.18
2018-02-07T00:48:52.873Z,0.13
2018-02-07T00:51:20.746Z,0.11
2018-02-07T00:53:48.291Z,0.37
2018-02-07T00:56:15.853Z,0.52
2018-02-07T00:58:43.434Z,0.32
2018-02-07T01:01:10.982Z,0.15
2018-02-07T01:03:38.752Z,0.15
2018-02-07T01:06:06.402Z,0.37
2018-02-07T01:08:33.938Z,0.17
2018-02-07T01:11:01.626Z,0.10
2018-02-07T01:13:29.188Z,0.11
2018-02-07T01:15:56.734Z,0.29
2018-02-07T01:18:24.321Z,0.28
2018-02-07T01:20:51.869Z,0.46
2018-02-07T01:23:19.421Z,0.56
2018-02-07T01:25:47.023Z,0.44
2018-02-07T01:28:14.620Z,0.26
2018-02-07T01:30:42.181Z,0.19
2018-02-07T01:33:09.771Z,0.34
2018-02-07T01:35:37.331Z,0.60
2018-02-07T01:38:04.881Z,0.39
2018-02-07T01:40:32.747Z,0.20
2018-02-07T01:43:00.296Z,0.11
2018-02-07T01:45:27.849Z,0.14
2018-02-07T01:47:55.431Z,0.09
2018-02-07T01:50:22.985Z,0.03
2018-02-07T01:52:50.570Z,0.03
2018-02-07T01:55:18.169Z,0.09
2018-02-07T01:57:45.724Z,0.10
2018-02-07T02:00:13.266Z,0.29
2018-02-07T02:02:41.149Z,0.26
2018-02-07T02:05:08.706Z,0.12
2018-02-07T02:07:36.328Z,0.22
2018-02-07T02:10:03.904Z,0.25
2018-02-07T02:12:31.458Z,0.39
2018-02-07T02:14:59.010Z,0.33
2018-02-07T02:17:26.717Z,0.16
2018-02-07T02:19:54.308Z,0.27
2018-02-07T02:22:21.866Z,0.45
2018-02-07T02:24:49.446Z,0.64
2018-02-07T02:27:17.005Z,0.72
2018-02-07T02:29:44.567Z,0.84
2018-02-07T02:32:12.155Z,0.83
2018-02-07T02:34:39.701Z,0.64
2018-02-07T02:37:07.256Z,0.49
2018-02-07T02:39:34.855Z,0.60
2018-02-07T02:42:02.414Z,0.76
2018-02-07T02:44:29.975Z,0.99
2018-02-07T02:46:57.878Z,0.73
2018-02-07T02:49:25.427Z,0.62
2018-02-07T02:51:52.989Z,0.51
2018-02-07T02:54:20.598Z,0.43
2018-02-07T02:56:48.160Z,0.37
2018-02-07T02:59:15.703Z,0.34
2018-02-07T03:01:43.305Z,0.51
2018-02-07T03:04:10.870Z,0.61
2018-02-07T03:06:38.429Z,0.78
2018-02-07T03:09:06.031Z,0.97
2018-02-07T03:11:33.577Z,1.13
2018-02-07T03:14:01.118Z,1.32
2018-02-07T03:16:28.724Z,1.49
2018-02-07T03:18:56.286Z,1.61
2018-02-07T03:21:23.848Z,1.65
2018-02-07T03:23:51.459Z,1.74
2018-02-07T03:26:19.000Z,1.59
2018-02-07T03:28:46.552Z,1.67
2018-02-07T03:31:14.287Z,1.83
2018-02-07T03:33:41.839Z,1.84
2018-02-07T03:36:09.385Z,1.89
2018-02-07T03:38:37.089Z,2.00
2018-02-07T03:41:04.641Z,1.81
2018-02-07T03:43:32.183Z,1.85
2018-02-07T03:46:00.070Z,1.82
2018-02-07T03:48:27.622Z,1.56
2018-02-07T03:50:55.183Z,1.51
2018-02-07T03:53:23.066Z,1.57
2018-02-07T03:55:50.611Z,1.41
2018-02-07T03:58:18.157Z,1.11
2018-02-07T04:00:45.897Z,1.04
2018-02-07T04:03:13.474Z,0.93
2018-02-07T04:05:41.026Z,1.04
2018-02-07T04:08:08.744Z,1.34
2018-02-07T04:10:36.297Z,1.25
2018-02-07T04:13:03.838Z,1.11
2018-02-07T04:15:31.414Z,1.00
2018-02-07T04:17:58.964Z,0.93
2018-02-07T04:20:26.518Z,0.89
2018-02-07T04:22:54.098Z,0.90
2018-02-07T04:25:21.647Z,0.92
2018-02-07T04:27:49.213Z,0.99
2018-02-07T04:30:16.799Z,1.19
2018-02-07T04:32:44.346Z,1.28
2018-02-07T04:35:11.911Z,1.33
2018-02-07T04:37:39.601Z,1.49
2018-02-07T04:40:07.161Z,1.61
2018-02-07T04:42:34.727Z,1.44
2018-02-07T04:45:02.606Z,1.23
2018-02-07T04:47:30.206Z,1.49
2018-02-07T04:49:57.762Z,1.51
2018-02-07T04:52:25.358Z,1.47
2018-02-07T04:54:52.912Z,1.23
2018-02-07T04:57:20.462Z,1.07
2018-02-07T04:59:48.204Z,1.06
2018-02-07T05:02:15.749Z,1.21
2018-02-07T05:04:43.671Z,1.41
2018-02-07T05:07:11.530Z,1.65
2018-02-07T05:09:39.079Z,1.38
2018-02-07T05:12:06.630Z,1.45
2018-02-07T05:14:34.369Z,1.52
2018-02-07T05:17:01.921Z,1.75
2018-02-07T05:19:29.471Z,1.85
2018-02-07T05:21:57.153Z,1.95
2018-02-07T05:24:24.696Z,1.75
2018-02-07T05:26:52.241Z,1.95
2018-02-07T05:29:19.926Z,2.06
2018-02-07T05:31:47.487Z,2.08
2018-02-07T05:34:15.031Z,2.24
2018-02-07T05:36:42.760Z,2.34
2018-02-07T05:39:10.301Z,2.46
2018-02-07T05:41:37.857Z,2.34
2018-02-07T05:44:05.433Z,2.25
2018-02-07T05:46:32.989Z,2.32
2018-02-07T05:49:00.534Z,2.30
2018-02-07T05:51:28.255Z,2.35
2018-02-07T05:53:55.842Z,2.33
2018-02-07T05:56:23.392Z,2.41
2018-02-07T05:58:50.930Z,2.28
2018-02-07T06:01:18.496Z,2.25
2018-02-07T06:03:46.094Z,2.29
2018-02-07T06:06:13.652Z,2.39
2018-02-07T06:08:41.206Z,2.08
2018-02-07T06:11:08.954Z,2.13
2018-02-07T06:13:36.506Z,2.10
2018-02-07T06:16:04.128Z,2.03
2018-02-07T06:18:31.747Z,2.04
2018-02-07T06:20:59.306Z,2.05
2018-02-07T06:23:26.874Z,2.12
2018-02-07T06:25:54.613Z,2.24
2018-02-07T06:28:22.177Z,2.25
2018-02-07T06:30:49.727Z,2.40
2018-02-07T06:33:17.466Z,2.49
2018-02-07T06:35:45.057Z,2.56
2018-02-07T06:38:12.637Z,2.54
2018-02-07T06:40:40.218Z,2.74
2018-02-07T06:43:07.764Z,2.71
2018-02-07T06:45:35.352Z,2.73
2018-02-07T06:48:02.943Z,2.84
2018-02-07T06:50:30.504Z,2.97
2018-02-07T06:52:58.084Z,3.17
2018-02-07T06:55:25.784Z,3.24
2018-02-07T06:57:53.330Z,3.26
2018-02-07T07:00:20.902Z,3.23
2018-02-07T07:02:48.469Z,3.26
2018-02-07T07:05:16.022Z,3.39
2018-02-07T07:07:43.578Z,3.44
2018-02-07T07:10:11.178Z,3.46
2018-02-07T07:12:38.728Z,3.53
2018-02-07T07:15:06.286Z,3.60
2018-02-07T07:17:34.301Z,3.51
2018-02-07T07:20:01.881Z,3.51
2018-02-07T07:22:29.458Z,3.40
2018-02-07T07:24:57.198Z,3.57
2018-02-07T07:27:24.744Z,3.52
2018-02-07T07:29:52.286Z,3.42
2018-02-07T07:32:19.861Z,3.37
2018-02-07T07:34:47.431Z,3.37
2018-02-07T07:37:14.987Z,3.41
2018-02-07T07:39:42.675Z,3.45
2018-02-07T07:42:10.238Z,3.45
2018-02-07T07:44:37.829Z,3.42
2018-02-07T07:47:05.419Z,3.42
2018-02-07T07:49:32.994Z,3.50
2018-02-07T07:52:00.548Z,3.47
2018-02-07T07:54:28.437Z,3.59
2018-02-07T07:56:56.011Z,3.72
2018-02-07T07:59:25.570Z,3.86
2018-02-07T08:01:53.158Z,4.04
2018-02-07T08:04:20.732Z,4.05
2018-02-07T08:06:48.312Z,3.85
2018-02-07T08:09:16.009Z,3.83
2018-02-07T08:11:43.552Z,3.86
2018-02-07T08:14:11.119Z,3.90
2018-02-07T08:16:38.860Z,3.85
2018-02-07T08:19:06.427Z,4.03
2018-02-07T08:21:33.974Z,4.04
2018-02-07T08:24:01.671Z,3.99
2018-02-07T08:26:29.235Z,4.00
2018-02-07T08:28:56.791Z,4.12
2018-02-07T08:31:24.531Z,4.08
2018-02-07T08:33:52.072Z,4.06
2018-02-07T08:36:19.623Z,4.17
2018-02-07T08:38:47.223Z,4.09
2018-02-07T08:41:14.778Z,4.32
2018-02-07T08:43:42.337Z,4.57
2018-02-07T08:46:10.017Z,4.53
2018-02-07T08:48:37.568Z,4.49
2018-02-07T08:51:05.130Z,4.35
2018-02-07T08:53:32.865Z,4.32
2018-02-07T08:56:00.418Z,4.30
2018-02-07T08:58:27.964Z,4.28
2018-02-07T09:00:55.570Z,4.39
2018-02-07T09:03:23.119Z,4.36
2018-02-07T09:05:50.666Z,4.44
2018-02-07T09:08:18.414Z,4.62
2018-02-07T09:10:45.976Z,4.51
2018-02-07T09:13:13.554Z,4.45
2018-02-07T09:15:41.243Z,4.30
2018-02-07T09:18:08.799Z,4.37
2018-02-07T09:20:36.351Z,4.37
2018-02-07T09:23:04.888Z,4.19
2018-02-07T09:25:32.695Z,4.42
2018-02-07T09:28:00.243Z,4.50
2018-02-07T09:30:27.829Z,4.66
2018-02-07T09:32:55.402Z,4.78
2018-02-07T09:35:22.958Z,4.55
2018-02-07T09:37:50.612Z,4.66
2018-02-07T09:40:18.167Z,4.71
2018-02-07T09:42:45.729Z,4.64
2018-02-07T09:45:13.311Z,4.60
2018-02-07T09:47:40.877Z,4.61
2018-02-07T09:50:08.434Z,4.63
2018-02-07T09:52:36.187Z,4.63
2018-02-07T09:55:03.742Z,4.62
2018-02-07T09:57:31.290Z,4.62
2018-02-07T09:59:59.171Z,4.75
2018-02-07T10:02:26.714Z,4.70
2018-02-07T10:04:54.283Z,4.70
2018-02-07T10:07:21.855Z,4.71
2018-02-07T10:09:49.429Z,4.52
2018-02-07T10:12:16.978Z,4.52
2018-02-07T10:14:44.674Z,4.63
2018-02-07T10:17:12.222Z,4.77
2018-02-07T10:19:39.771Z,4.74
2018-02-07T10:22:07.366Z,4.81
2018-02-07T10:24:34.921Z,4.78
2018-02-07T10:27:02.475Z,4.81
2018-02-07T10:29:30.201Z,4.90
2018-02-07T10:31:57.762Z,4.80
2018-02-07T10:34:25.366Z,4.78
2018-02-07T10:36:52.995Z,4.72
2018-02-07T10:39:20.555Z,4.80
2018-02-07T10:41:48.103Z,4.85
2018-02-07T10:44:16.074Z,4.90
2018-02-07T10:46:43.624Z,5.08
2018-02-07T10:49:11.169Z,5.16
2018-02-07T10:51:39.193Z,5.20
2018-02-07T10:54:06.739Z,5.37
2018-02-07T10:56:34.299Z,5.28
2018-02-07T10:59:01.846Z,5.33
2018-02-07T11:01:29.400Z,5.26
2018-02-07T11:03:57.274Z,5.24
2018-02-07T11:06:24.826Z,5.17
2018-02-07T11:08:52.386Z,5.34
2018-02-07T11:11:20.022Z,5.27
2018-02-07T11:13:47.578Z,5.09
2018-02-07T11:16:15.180Z,5.10
2018-02-07T11:18:42.762Z,5.26
2018-02-07T11:21:10.321Z,5.44
2018-02-07T11:23:37.874Z,5.59
2018-02-07T11:26:05.451Z,5.52
2018-02-07T11:28:33.019Z,5.70
2018-02-07T11:31:00.578Z,5.84
2018-02-07T11:33:28.269Z,5.93
2018-02-07T11:35:55.872Z,5.99
2018-02-07T11:38:23.407Z,5.88
2018-02-07T11:40:50.995Z,5.77
2018-02-07T11:43:18.553Z,5.81
2018-02-07T11:45:46.119Z,5.88
2018-02-07T11:48:13.809Z,5.76
2018-02-07T11:50:41.356Z,5.70
2018-02-07T11:53:08.903Z,5.81
2018-02-07T11:55:36.578Z,5.80
2018-02-07T11:58:04.128Z,5.81
2018-02-07T12:00:31.679Z,5.65
2018-02-07T12:02:59.402Z,5.64
2018-02-07T12:05:26.984Z,5.73
2018-02-07T12:07:54.558Z,5.79
2018-02-07T12:10:22.254Z,5.88
2018-02-07T12:12:49.798Z,5.82
2018-02-07T12:15:17.350Z,5.68
2018-02-07T12:17:45.047Z,5.57
2018-02-07T12:20:12.608Z,5.55
2018-02-07T12:22:40.163Z,5.54
2018-02-07T12:25:07.749Z,5.57
2018-02-07T12:27:35.312Z,5.42
2018-02-07T12:30:02.875Z,5.37
2018-02-07T12:32:30.474Z,5.46
2018-02-07T12:34:58.056Z,5.32
2018-02-07T12:37:26.367Z,5.51
2018-02-07T12:39:54.187Z,5.48
2018-02-07T12:42:21.735Z,5.32
2018-02-07T12:44:49.288Z,5.31
2018-02-07T12:47:17.150Z,5.22
2018-02-07T12:49:44.706Z,5.26
2018-02-07T12:52:12.264Z,5.30
2018-02-07T12:54:40.015Z,5.45
2018-02-07T12:57:07.560Z,5.49
2018-02-07T12:59:35.957Z,5.55
2018-02-07T13:02:03.693Z,5.60
2018-02-07T13:04:31.258Z,5.60
2018-02-07T13:06:58.806Z,5.45
2018-02-07T13:09:26.494Z,5.55
2018-02-07T13:11:54.067Z,5.53
2018-02-07T13:14:21.628Z,5.26
2018-02-07T13:16:49.372Z,5.28
2018-02-07T13:19:16.919Z,5.37
2018-02-07T13:21:44.468Z,5.15
2018-02-07T13:24:12.079Z,5.21
2018-02-07T13:26:39.627Z,5.17
2018-02-07T13:29:07.184Z,5.11
2018-02-07T13:31:35.061Z,5.12
2018-02-07T13:34:02.628Z,5.12
2018-02-07T13:36:30.176Z,5.16
2018-02-07T13:38:57.937Z,5.14
2018-02-07T13:41:25.496Z,5.31
2018-02-07T13:43:53.042Z,5.27
2018-02-07T13:46:20.630Z,5.07
2018-02-07T13:48:48.177Z,5.03
2018-02-07T13:51:15.733Z,4.93
2018-02-07T13:53:43.444Z,4.94
2018-02-07T13:56:10.994Z,4.82
2018-02-07T13:58:38.562Z,4.83
2018-02-07T14:01:06.437Z,4.95
2018-02-07T14:03:33.984Z,5.08
2018-02-07T14:06:01.534Z,5.12
2018-02-07T14:08:29.115Z,5.11
2018-02-07T14:10:56.658Z,5.18
2018-02-07T14:13:24.257Z,5.26
2018-02-07T14:15:51.839Z,5.23
2018-02-07T14:18:19.382Z,5.16
2018-02-07T14:20:46.927Z,5.00
2018-02-07T14:23:14.597Z,4.83
2018-02-07T14:25:42.178Z,4.73
2018-02-07T14:28:09.717Z,4.66
2018-02-07T14:30:37.586Z,4.71
2018-02-07T14:33:05.143Z,4.69
2018-02-07T14:35:32.701Z,4.43
2018-02-07T14:38:00.568Z,4.47
2018-02-07T14:40:28.113Z,4.49
2018-02-07T14:42:55.657Z,4.53
2018-02-07T14:45:23.253Z,4.53
2018-02-07T14:47:50.830Z,4.28
2018-02-07T14:50:18.395Z,4.09
2018-02-07T14:52:45.998Z,4.29
2018-02-07T14:55:13.550Z,4.14
2018-02-07T14:57:41.108Z,4.14
2018-02-07T15:00:08.711Z,4.07
2018-02-07T15:02:36.268Z,4.17
2018-02-07T15:05:04.002Z,4.00
2018-02-07T15:07:31.592Z,3.77
2018-02-07T15:09:59.159Z,3.74
2018-02-07T15:12:26.730Z,3.73
2018-02-07T15:14:54.278Z,3.75
2018-02-07T15:17:21.826Z,3.52
2018-02-07T15:19:49.405Z,3.69
2018-02-07T15:22:16.958Z,3.46
2018-02-07T15:24:44.510Z,3.53
2018-02-07T15:27:12.195Z,3.52
2018-02-07T15:29:39.740Z,3.63
2018-02-07T15:32:07.303Z,3.52
2018-02-07T15:34:35.006Z,3.43
2018-02-07T15:37:02.555Z,3.52
2018-02-07T15:39:30.097Z,3.57
2018-02-07T15:41:57.827Z,3.59
2018-02-07T15:44:25.415Z,3.55
2018-02-07T15:46:52.971Z,3.47
2018-02-07T15:49:20.679Z,3.38
2018-02-07T15:51:48.301Z,3.22
2018-02-07T15:54:15.863Z,2.89
2018-02-07T15:56:43.554Z,2.98
2018-02-07T15:59:11.103Z,2.91
2018-02-07T16:01:38.718Z,2.99
2018-02-07T16:04:07.037Z,3.10
2018-02-07T16:06:34.603Z,3.02
2018-02-07T16:09:02.168Z,2.93
2018-02-07T16:11:29.910Z,2.86
2018-02-07T16:13:57.461Z,2.83
2018-02-07T16:16:25.023Z,2.85
2018-02-07T16:18:52.630Z,2.96
2018-02-07T16:21:20.210Z,2.83
2018-02-07T16:23:47.810Z,2.88
2018-02-07T16:26:15.559Z,2.74
2018-02-07T16:28:43.103Z,2.64
2018-02-07T16:31:10.649Z,2.71
2018-02-07T16:33:38.521Z,2.75
2018-02-07T16:36:06.120Z,2.55
2018-02-07T16:38:33.667Z,2.58
2018-02-07T16:41:01.387Z,2.62
2018-02-07T16:43:28.928Z,2.49
2018-02-07T16:45:56.487Z,2.43
2018-02-07T16:48:24.375Z,2.36
2018-02-07T16:50:51.945Z,2.46
2018-02-07T16:53:19.494Z,2.38
2018-02-07T16:55:47.102Z,2.55
2018-02-07T16:58:14.656Z,2.61
2018-02-07T17:00:42.210Z,2.46
2018-02-07T17:03:09.902Z,2.53
2018-02-07T17:05:37.472Z,2.48
2018-02-07T17:08:05.053Z,2.55
2018-02-07T17:10:32.639Z,2.40
2018-02-07T17:13:00.194Z,2.45
2018-02-07T17:15:27.742Z,2.44
2018-02-07T17:17:55.334Z,2.37
2018-02-07T17:20:22.927Z,2.31
2018-02-07T17:22:50.488Z,2.09
2018-02-07T17:25:18.063Z,2.17
2018-02-07T17:27:45.616Z,2.42
2018-02-07T17:30:13.185Z,2.48
2018-02-07T17:32:40.807Z,2.64
2018-02-07T17:35:08.357Z,2.78
2018-02-07T17:37:35.943Z,2.67
2018-02-07T17:40:03.528Z,2.53
2018-02-07T17:42:31.576Z,2.47
2018-02-07T17:44:59.164Z,2.40
2018-02-07T17:47:26.869Z,2.29
2018-02-07T17:49:54.440Z,2.25
2018-02-07T17:52:22.000Z,2.33
2018-02-07T17:54:49.733Z,2.21
2018-02-07T17:57:17.330Z,2.31
2018-02-07T17:59:45.744Z,2.37
2018-02-07T18:02:13.361Z,2.21
2018-02-07T18:04:40.979Z,2.27
2018-02-07T18:07:08.543Z,2.33
2018-02-07T18:09:36.124Z,2.19
2018-02-07T18:12:03.687Z,2.17
2018-02-07T18:14:32.464Z,2.33
2018-02-07T18:17:00.163Z,2.44
2018-02-07T18:19:27.723Z,2.46
2018-02-07T18:21:55.283Z,2.42
2018-02-07T18:24:23.025Z,2.45
2018-02-07T18:26:50.590Z,2.32
2018-02-07T18:29:18.147Z,2.25
2018-02-07T18:31:45.849Z,2.24
2018-02-07T18:34:13.427Z,2.25
2018-02-07T18:36:40.979Z,2.28
2018-02-07T18:39:08.568Z,2.21
2018-02-07T18:41:36.148Z,2.22
2018-02-07T18:44:03.719Z,2.21
2018-02-07T18:46:31.319Z,2.26
2018-02-07T18:48:58.894Z,2.37
2018-02-07T18:51:26.456Z,2.38
2018-02-07T18:53:55.009Z,2.43
2018-02-07T18:56:22.564Z,2.38
2018-02-07T18:58:50.122Z,2.37
2018-02-07T19:01:17.711Z,2.34
2018-02-07T19:03:45.295Z,2.29
2018-02-07T19:06:12.859Z,2.32
2018-02-07T19:08:40.743Z,2.35
2018-02-07T19:11:08.311Z,2.32
2018-02-07T19:13:35.897Z,2.30
2018-02-07T19:16:03.619Z,2.34
2018-02-07T19:18:31.173Z,2.32
2018-02-07T19:20:58.731Z,2.35
2018-02-07T19:23:26.341Z,2.40
2018-02-07T19:25:53.907Z,2.36
2018-02-07T19:28:21.491Z,2.48
2018-02-07T19:30:49.187Z,2.46
2018-02-07T19:33:16.747Z,2.44
2018-02-07T19:35:44.301Z,2.47
2018-02-07T19:38:12.054Z,2.53
2018-02-07T19:40:39.617Z,2.53
2018-02-07T19:43:07.203Z,2.57
2018-02-07T19:45:35.078Z,2.57
2018-02-07T19:48:02.639Z,2.54
2018-02-07T19:50:30.190Z,2.60
2018-02-07T19:52:57.788Z,2.68
2018-02-07T19:55:25.375Z,2.72
2018-02-07T19:57:52.928Z,2.72
2018-02-07T20:00:20.496Z,2.89
2018-02-07T20:02:48.062Z,2.75
2018-02-07T20:05:15.824Z,2.88
2018-02-07T20:07:43.420Z,2.93
2018-02-07T20:10:10.976Z,2.94
2018-02-07T20:12:38.677Z,3.00
2018-02-07T20:15:06.234Z,2.96
2018-02-07T20:17:33.819Z,3.00
2018-02-07T20:20:01.434Z,2.95
2018-02-07T20:22:29.003Z,2.97
2018-02-07T20:24:56.561Z,2.99
2018-02-07T20:27:24.312Z,2.90
2018-02-07T20:29:51.883Z,2.78
2018-02-07T20:32:19.459Z,2.77
2018-02-07T20:34:47.205Z,2.75
2018-02-07T20:37:14.768Z,2.85
2018-02-07T20:39:42.320Z,2.95
2018-02-07T20:42:10.195Z,2.95
2018-02-07T20:44:37.742Z,2.92
2018-02-07T20:47:05.307Z,2.99
2018-02-07T20:49:33.166Z,2.86
2018-02-07T20:52:00.754Z,2.91
2018-02-07T20:54:28.517Z,3.04
2018-02-07T20:56:56.123Z,2.94
2018-02-07T20:59:23.729Z,2.86
2018-02-07T21:01:51.298Z,2.79
2018-02-07T21:04:18.913Z,2.81
2018-02-07T21:06:46.514Z,2.91
2018-02-07T21:09:14.106Z,3.04
2018-02-07T21:11:41.693Z,3.01
2018-02-07T21:14:09.257Z,3.13
2018-02-07T21:16:36.806Z,3.06
2018-02-07T21:19:04.433Z,2.97
2018-02-07T21:21:32.004Z,2.96
2018-02-07T21:23:59.586Z,2.94
2018-02-07T21:26:27.203Z,3.01
2018-02-07T21:28:54.766Z,3.05
2018-02-07T21:31:22.537Z,2.96
2018-02-07T21:33:50.289Z,3.17
2018-02-07T21:36:17.855Z,3.13
2018-02-07T21:38:45.433Z,3.23
2018-02-07T21:41:13.154Z,3.23
2018-02-07T21:43:40.744Z,3.38
2018-02-07T21:46:08.304Z,3.41
2018-02-07T21:48:36.084Z,3.33
2018-02-07T21:51:03.671Z,3.00
2018-02-07T21:53:31.219Z,3.02
2018-02-07T21:55:58.953Z,3.18
2018-02-07T21:58:26.512Z,2.92
2018-02-07T22:00:54.084Z,3.05
2018-02-07T22:03:21.682Z,3.22
2018-02-07T22:05:49.230Z,3.32
2018-02-07T22:08:16.829Z,3.34
2018-02-07T22:10:44.430Z,3.47
2018-02-07T22:13:12.005Z,3.51
2018-02-07T22:15:39.590Z,3.59
2018-02-07T22:18:07.179Z,3.56
2018-02-07T22:20:34.750Z,3.60
2018-02-07T22:23:02.306Z,3.64
2018-02-07T22:25:30.020Z,3.69
2018-02-07T22:27:57.570Z,3.77
2018-02-07T22:30:25.167Z,3.78
2018-02-07T22:32:52.804Z,3.76
2018-02-07T22:35:20.362Z,3.66
2018-02-07T22:37:47.918Z,3.51
2018-02-07T22:40:15.620Z,3.50
2018-02-07T22:42:43.180Z,3.38
2018-02-07T22:45:10.729Z,3.38
2018-02-07T22:47:38.310Z,3.28
2018-02-07T22:50:05.866Z,3.34
2018-02-07T22:52:33.459Z,3.24
2018-02-07T22:55:01.209Z,2.78
2018-02-07T22:57:28.766Z,2.95
2018-02-07T22:59:56.325Z,3.06
2018-02-07T23:02:24.072Z,3.02
2018-02-07T23:04:51.611Z,2.70
2018-02-07T23:07:19.162Z,2.64
2018-02-07T23:09:47.034Z,2.61
2018-02-07T23:12:14.591Z,2.66
2018-02-07T23:14:42.146Z,2.60
2018-02-07T23:17:09.830Z,2.80
2018-02-07T23:22:04.214Z,2.89
2018-02-07T23:24:31.810Z,3.00
2018-02-07T23:26:59.431Z,2.90
2018-02-07T23:29:26.990Z,2.54
2018-02-07T23:31:54.564Z,2.52
2018-02-07T23:34:22.109Z,2.58
2018-02-07T23:36:49.682Z,2.47
2018-02-07T23:39:17.272Z,2.60
2018-02-07T23:41:44.851Z,2.67
2018-02-07T23:44:12.437Z,2.62
2018-02-07T23:46:40.153Z,2.68
2018-02-07T23:49:07.694Z,2.29
2018-02-07T23:51:35.245Z,2.44
2018-02-07T23:54:03.002Z,2.38
2018-02-07T23:56:30.537Z,2.33
2018-02-07T23:58:58.090Z,2.11
